EGNTEGAA

Guest
Details From EGNT - Newcastle
To EGAA - Belfast Aldergrove
Flight Number -
Tags Generated
Created
Modified
Stats Distance 158 nm / 293 km
Max Altitude 0 ft / 0 m
Waypoints 2
Social Downloads 1
Likes 0
Share VATSIM

Download

Looking for another format? Having issues loading an existing format? Contact us
Advertisement - Login to hide

Notes

Generated

Route

EGNT EGAA

ID Type Via Altitude Latitude Longitude Leg Dist Tot Dist Heading (true) Name
O EGNT APT - 0 ft / 0 m 55.03353˚ -1.70634˚ - 0 nm - -
O EGAA APT - 0 ft / 0 m 54.65792˚ -6.22862˚ 157 nm 157 nm 264° / 260° -

Altitude Profile

Advertisement - Login to hide

EGNT

Details ICAO EGNT (NCL)
Name Newcastle
Region United Kingdom
Timezone Europe/London (UTC+1.0)
Stats Elevation 266 ft / 81 m (AMSL)
Location 55.037922° -1.689833°
Runways 1
Magnetic Variation 1.406° W

METAR

EGNT 240420Z 08003KT 8000 BKN005 08/07 Q1027

Decode

TAF

TAF AMD EGNT 240239Z 2402/2424 07005KT 9999 BKN008 PROB30 TEMPO 2402/2408 4000 BR BKN004 TEMPO 2411/2417 SCT008 BKN015 PROB30 TEMPO 2419/2424 3000 BR BKN003

Decode

Departure Runways

ID Width Length Bearing (true) Bearing (mag) Surface Threshold Offset Overrun Length
07 151 ft / 46 m 7,621 ft / 2,323 m 65.13° 66.54° Asphalt 394 ft / 120 m 108 ft / 33 m
25 151 ft / 46 m 7,621 ft / 2,323 m 245.16° 246.57° Asphalt 446 ft / 136 m 56 ft / 17 m

EGAA

Details ICAO EGAA (BFS)
Name Belfast Aldergrove
Region United Kingdom
Timezone Europe/London (UTC+1.0)
Stats Elevation 268 ft / 82 m (AMSL)
Location 54.653878° -6.220006°
Runways 2
Magnetic Variation 3.166° W

METAR

EGAA 240350Z 05006KT 5000 HZ NSC 08/07 Q1024

Decode

TAF

TAF TAF EGAA 232301Z 2400/2424 10007KT 9999 SCT045 TEMPO 2400/2408 7000 PROB30 TEMPO 2405/2408 BKN009

Decode

Destination Runways

ID Width Length Bearing (true) Bearing (mag) Surface Threshold Offset Overrun Length
07 148 ft / 45 m 9,095 ft / 2,772 m 65.01° 68.18° Asphalt 0 ft / 0 m 0 ft / 0 m
17 148 ft / 45 m 5,896 ft / 1,797 m 161.98° 165.15° Asphalt 525 ft / 160 m 0 ft / 0 m
25 148 ft / 45 m 9,095 ft / 2,772 m 245.05° 248.22° Asphalt 0 ft / 0 m 0 ft / 0 m
35 148 ft / 45 m 5,896 ft / 1,797 m 341.99° 345.16° Asphalt 502 ft / 153 m 0 ft / 0 m

Approach Navaids

Runway Type Ident Frequency Range Bearing (true) Bearing (mag) Slope Elevation
17 Localiser IFT 110.90 MHz 18 nm / 33 km 162.00° 165.16° - 258 ft / 79 m (AMSL)
17 Glidescope IFT 110.90 MHz 10 nm / 19 km 161.99° 165.15° 3.00° 253 ft / 77 m (AMSL)
17 DME IFT 110.90 MHz 18 nm / 33 km - - - 253 ft / 77 m (AMSL)
25 Localiser IAG 109.90 MHz 18 nm / 33 km 245.01° 248.18° - 206 ft / 63 m (AMSL)
25 Glidescope IAG 109.90 MHz 10 nm / 19 km 245.03° 248.20° 3.00° 305 ft / 93 m (AMSL)
25 DME IAG 109.90 MHz 18 nm / 33 km - - - 305 ft / 93 m (AMSL)

Popular Alternatives